Terminal Aerodrome Forecast
Issued by NWS Sterling, VA

Home | Current Version | Previous Version | Text Only | Print | Product List | Glossary On
Versions: 1 2 3 4 5 6 7 8 9 10 11 12 13 14
000
FTUS41 KLWX 210500
TAFMRB
TAF
KMRB 210535Z 2106/2206 00000KT P6SM BKN090
     FM210900 00000KT 3SM BR SCT250
     FM211300 VRB03KT P6SM SCT250
     FM211700 25008KT P6SM VCTS SCT060CB
     FM212100 25010KT P6SM BKN250
     FM220300 28006KT 3SM BR BKN250=

USA.gov is the U.S. government's official web portal to all federal, state and local government web resources and services.